createdAt,value
2023-02-22T00:00:42.962Z,100582.06
2023-02-22T00:01:51.144Z,100587.56
2023-02-22T00:02:59.745Z,100590.78
2023-02-22T00:04:02.548Z,100588.44
2023-02-22T00:05:05.359Z,100582.13
2023-02-22T00:06:07.092Z,100585.94
2023-02-22T00:07:09.667Z,100582.31
2023-02-22T00:08:11.626Z,100573.50
2023-02-22T00:09:20.319Z,100580.53
2023-02-22T00:10:24.805Z,100575.59
2023-02-22T00:11:27.588Z,100579.84
2023-02-22T00:12:29.268Z,100579.25
2023-02-22T00:13:31.785Z,100578.44
2023-02-22T00:14:33.589Z,100582.03
2023-02-22T00:15:36.874Z,100577.38
2023-02-22T00:16:38.811Z,100564.50
2023-02-22T00:17:41.351Z,100571.53
2023-02-22T00:18:44.358Z,100576.31
2023-02-22T00:19:49.389Z,100577.38
2023-02-22T00:20:51.386Z,100575.78
2023-02-22T00:21:54.192Z,100575.00
2023-02-22T00:22:55.840Z,100578.81
2023-02-22T00:23:58.260Z,100572.25
2023-02-22T00:24:59.818Z,100568.59
2023-02-22T00:26:03.773Z,100585.53
2023-02-22T00:27:05.276Z,100578.44
2023-02-22T00:28:07.973Z,100579.41
2023-02-22T00:29:09.463Z,100578.28
2023-02-22T00:30:19.028Z,100574.88
2023-02-22T00:31:21.722Z,100578.56
2023-02-22T00:32:27.130Z,100570.63
2023-02-22T00:33:29.610Z,100576.88
2023-02-22T00:34:31.122Z,100568.59
2023-02-22T00:35:33.608Z,100567.28
2023-02-22T00:36:35.067Z,100576.47
2023-02-22T00:37:41.753Z,100566.78
2023-02-22T00:38:43.293Z,100561.50
2023-02-22T00:39:47.813Z,100571.53
2023-02-22T00:40:49.287Z,100568.47
2023-02-22T00:41:53.079Z,100563.31
2023-02-22T00:42:54.623Z,100573.59
2023-02-22T00:43:57.095Z,100568.13
2023-02-22T00:44:58.576Z,100570.69
2023-02-22T00:46:01.216Z,100571.78
2023-02-22T00:47:05.131Z,100568.31
2023-02-22T00:48:08.545Z,100564.41
2023-02-22T00:49:10.095Z,100563.38
2023-02-22T00:50:13.271Z,100560.13
2023-02-22T00:51:15.084Z,100560.34
2023-02-22T00:52:17.767Z,100556.53
2023-02-22T00:53:20.787Z,100559.28
2023-02-22T00:54:23.239Z,100555.47
2023-02-22T00:55:26.466Z,100558.97
2023-02-22T00:56:29.133Z,100556.03
2023-02-22T00:57:31.971Z,100560.34
2023-02-22T00:58:34.465Z,100559.47
2023-02-22T00:59:35.955Z,100557.19
2023-02-22T01:00:41.796Z,100553.31
2023-02-22T01:01:43.335Z,100553.06
2023-02-22T01:02:50.004Z,100549.63
2023-02-22T01:03:51.767Z,100552.66
2023-02-22T01:04:54.491Z,100555.09
2023-02-22T01:05:56.384Z,100547.13
2023-02-22T01:07:00.783Z,100545.94
2023-02-22T01:08:03.129Z,100544.88
2023-02-22T01:09:08.310Z,100543.56
2023-02-22T01:10:12.205Z,100551.00
2023-02-22T01:11:16.610Z,100538.72
2023-02-22T01:12:18.334Z,100544.59
2023-02-22T01:13:23.073Z,100545.19
2023-02-22T01:14:26.643Z,100543.53
2023-02-22T01:15:30.925Z,100545.69
2023-02-22T01:16:32.576Z,100537.13
2023-02-22T01:17:35.062Z,100543.25
2023-02-22T01:18:37.219Z,100547.25
2023-02-22T01:19:42.432Z,100540.94
2023-02-22T01:20:47.914Z,100539.47
2023-02-22T01:21:51.317Z,100538.94
2023-02-22T01:22:54.852Z,100537.94
2023-02-22T01:23:57.298Z,100538.75
2023-02-22T01:24:58.824Z,100540.38
2023-02-22T01:26:01.389Z,100537.28
2023-02-22T01:27:02.904Z,100535.66
2023-02-22T01:28:07.890Z,100536.13
2023-02-22T01:29:15.200Z,100538.00
2023-02-22T01:30:22.119Z,100528.13
2023-02-22T01:31:24.036Z,100527.56
2023-02-22T01:32:26.624Z,100529.16
2023-02-22T01:33:28.128Z,100532.69
2023-02-22T01:34:31.056Z,100534.34
2023-02-22T01:35:34.540Z,100539.69
2023-02-22T01:36:37.040Z,100526.59
2023-02-22T01:37:38.582Z,100527.94
2023-02-22T01:38:41.331Z,100539.66
2023-02-22T01:39:42.871Z,100536.31
2023-02-22T01:40:49.992Z,100530.25
2023-02-22T01:41:53.626Z,100528.00
2023-02-22T01:42:58.374Z,100529.69
2023-02-22T01:44:20.687Z,100534.56
2023-02-22T01:45:52.941Z,100529.69
2023-02-22T01:46:55.501Z,100528.03
2023-02-22T01:47:59.718Z,100531.31
2023-02-22T01:49:07.243Z,100533.47
2023-02-22T01:50:10.679Z,100526.88
2023-02-22T01:51:17.578Z,100524.16
2023-02-22T01:52:21.033Z,100522.00
2023-02-22T01:53:30.542Z,100525.13
2023-02-22T01:54:38.635Z,100526.69
2023-02-22T01:55:40.578Z,100525.38
2023-02-22T01:56:50.428Z,100527.91
2023-02-22T01:57:51.929Z,100523.50
2023-02-22T01:58:59.032Z,100516.97
2023-02-22T02:00:10.067Z,100519.47
2023-02-22T02:01:12.920Z,100519.41
2023-02-22T02:02:14.973Z,100522.66
2023-02-22T02:03:22.426Z,100522.66
2023-02-22T02:04:25.493Z,100509.53
2023-02-22T02:05:31.431Z,100515.91
2023-02-22T02:06:35.883Z,100514.25
2023-02-22T02:07:39.442Z,100514.56
2023-02-22T02:08:51.551Z,100516.97
2023-02-22T02:09:59.017Z,100517.38
2023-02-22T02:11:02.400Z,100522.28
2023-02-22T02:12:06.431Z,100515.13
2023-02-22T02:13:10.123Z,100510.81
2023-02-22T02:14:14.129Z,100522.53
2023-02-22T02:15:21.401Z,100516.44
2023-02-22T02:16:26.520Z,100513.66
2023-02-22T02:17:28.085Z,100517.19
2023-02-22T02:18:32.605Z,100511.97
2023-02-22T02:19:48.357Z,100510.84
2023-02-22T02:21:05.850Z,100511.69
2023-02-22T02:22:26.624Z,100519.25
2023-02-22T02:23:50.245Z,100515.38
2023-02-22T02:25:18.200Z,100510.09
2023-02-22T02:26:44.085Z,100514.63
2023-02-22T02:28:01.504Z,100514.72
2023-02-22T02:29:42.450Z,100504.09
2023-02-22T02:31:02.321Z,100513.63
2023-02-22T02:32:23.781Z,100511.34
2023-02-22T02:33:32.604Z,100503.09
2023-02-22T02:34:39.935Z,100503.34
2023-02-22T02:35:52.054Z,100507.94
2023-02-22T02:37:02.952Z,100513.38
2023-02-22T02:38:08.479Z,100504.94
2023-02-22T02:39:20.571Z,100504.94
2023-02-22T02:40:30.563Z,100516.47
2023-02-22T02:41:35.816Z,100511.47
2023-02-22T02:42:44.711Z,100506.53
2023-02-22T02:43:53.324Z,100499.91
2023-02-22T02:45:02.618Z,100499.28
2023-02-22T02:46:08.982Z,100501.50
2023-02-22T02:47:15.686Z,100496.00
2023-02-22T02:48:23.473Z,100508.56
2023-02-22T02:49:31.507Z,100497.09
2023-02-22T02:50:41.585Z,100500.31
2023-02-22T02:51:50.253Z,100498.94
2023-02-22T02:52:55.464Z,100497.00
2023-02-22T02:53:59.007Z,100494.28
2023-02-22T02:55:02.820Z,100491.84
2023-02-22T02:56:06.395Z,100499.19
2023-02-22T02:57:09.430Z,100496.16
2023-02-22T02:58:19.929Z,100491.00
2023-02-22T02:59:28.017Z,100490.78
2023-02-22T03:00:39.216Z,100493.81
2023-02-22T03:01:54.926Z,100494.88
2023-02-22T03:03:10.345Z,100483.41
2023-02-22T03:04:38.841Z,100498.22
2023-02-22T03:06:08.378Z,100492.69
2023-02-22T03:07:23.035Z,100489.94
2023-02-22T03:08:34.744Z,100491.59
2023-02-22T03:09:43.894Z,100487.75
2023-02-22T03:10:53.862Z,100481.44
2023-02-22T03:12:08.746Z,100487.91
2023-02-22T03:13:17.446Z,100482.69
2023-02-22T03:14:28.227Z,100486.84
2023-02-22T03:15:36.452Z,100477.34
2023-02-22T03:16:47.104Z,100478.47
2023-02-22T03:17:54.234Z,100476.81
2023-02-22T03:19:04.650Z,100482.28
2023-02-22T03:20:12.716Z,100479.53
2023-02-22T03:21:25.342Z,100482.28
2023-02-22T03:22:32.560Z,100477.41
2023-02-22T03:23:44.834Z,100483.34
2023-02-22T03:24:53.055Z,100483.88
2023-02-22T03:26:02.083Z,100489.34
2023-02-22T03:27:09.523Z,100485.22
2023-02-22T03:28:16.572Z,100475.97
2023-02-22T03:29:21.637Z,100483.78
2023-02-22T03:30:29.097Z,100472.63
2023-02-22T03:31:37.188Z,100483.81
2023-02-22T03:32:45.678Z,100480.28
2023-02-22T03:33:54.367Z,100487.06
2023-02-22T03:34:59.493Z,100474.41
2023-02-22T03:36:10.911Z,100482.50
2023-02-22T03:37:16.979Z,100481.75
2023-02-22T03:38:21.794Z,100481.03
2023-02-22T03:39:30.938Z,100475.00
2023-02-22T03:40:37.630Z,100481.81
2023-02-22T03:41:40.597Z,100480.91
2023-02-22T03:42:48.828Z,100475.88
2023-02-22T03:43:54.848Z,100476.47
2023-02-22T03:45:01.133Z,100480.22
2023-02-22T03:46:03.862Z,100480.72
2023-02-22T03:47:10.764Z,100477.97
2023-02-22T03:48:19.462Z,100477.91
2023-02-22T03:49:29.790Z,100483.91
2023-02-22T03:50:35.688Z,100482.06
2023-02-22T03:51:40.136Z,100480.91
2023-02-22T03:52:43.148Z,100480.03
2023-02-22T03:53:45.690Z,100484.38
2023-02-22T03:54:47.196Z,100479.50
2023-02-22T03:55:51.622Z,100478.13
2023-02-22T03:56:56.054Z,100480.09
2023-02-22T03:58:00.125Z,100485.03
2023-02-22T03:59:02.854Z,100471.03
2023-02-22T04:00:07.764Z,100479.28
2023-02-22T04:01:09.764Z,100486.53
2023-02-22T04:02:12.451Z,100477.25
2023-02-22T04:03:14.011Z,100479.66
2023-02-22T04:04:18.320Z,100470.47
2023-02-22T04:05:20.727Z,100481.91
2023-02-22T04:06:23.462Z,100481.09
2023-02-22T04:07:26.362Z,100476.72
2023-02-22T04:08:28.770Z,100478.28
2023-02-22T04:09:30.565Z,100482.81
2023-02-22T04:10:35.470Z,100475.66
2023-02-22T04:11:37.677Z,100474.78
2023-02-22T04:12:40.237Z,100477.19
2023-02-22T04:13:41.777Z,100468.94
2023-02-22T04:14:44.447Z,100477.06
2023-02-22T04:15:45.920Z,100468.84
2023-02-22T04:16:48.383Z,100476.16
2023-02-22T04:17:49.900Z,100465.78
2023-02-22T04:18:52.755Z,100469.84
2023-02-22T04:19:54.224Z,100474.69
2023-02-22T04:20:56.720Z,100469.31
2023-02-22T04:21:58.484Z,100469.56
2023-02-22T04:23:02.447Z,100477.47
2023-02-22T04:24:04.565Z,100471.69
2023-02-22T04:25:08.145Z,100467.59
2023-02-22T04:26:09.851Z,100473.31
2023-02-22T04:27:12.418Z,100478.00
2023-02-22T04:28:14.179Z,100468.13
2023-02-22T04:29:16.679Z,100467.66
2023-02-22T04:30:19.054Z,100470.59
2023-02-22T04:31:21.752Z,100466.41
2023-02-22T04:32:23.366Z,100465.25
2023-02-22T04:33:25.953Z,100467.66
2023-02-22T04:34:27.503Z,100465.78
2023-02-22T04:35:30.077Z,100470.38
2023-02-22T04:36:31.838Z,100460.88
2023-02-22T04:37:34.775Z,100465.78
2023-02-22T04:38:37.583Z,100463.03
2023-02-22T04:39:40.119Z,100459.19
2023-02-22T04:40:41.689Z,100464.84
2023-02-22T04:41:44.126Z,100462.88
2023-02-22T04:42:45.651Z,100455.06
2023-02-22T04:43:48.173Z,100457.84
2023-02-22T04:44:49.874Z,100450.44
2023-02-22T04:45:52.362Z,100452.31
2023-02-22T04:46:53.914Z,100450.06
2023-02-22T04:47:56.413Z,100455.47
2023-02-22T04:49:00.693Z,100455.28
2023-02-22T04:50:03.324Z,100445.34
2023-02-22T04:51:05.775Z,100452.47
2023-02-22T04:52:08.210Z,100451.88
2023-02-22T04:53:09.850Z,100456.41
2023-02-22T04:54:14.080Z,100453.56
2023-02-22T04:55:16.620Z,100450.41
2023-02-22T04:56:19.590Z,100444.69
2023-02-22T04:57:21.358Z,100444.31
2023-02-22T04:58:23.835Z,100454.94
2023-02-22T04:59:25.397Z,100450.47
2023-02-22T05:00:27.969Z,100447.72
2023-02-22T05:01:33.582Z,100436.78
2023-02-22T05:02:36.127Z,100446.28
2023-02-22T05:03:38.195Z,100448.44
2023-02-22T05:04:40.736Z,100445.13
2023-02-22T05:05:42.419Z,100452.47
2023-02-22T05:06:44.884Z,100443.47
2023-02-22T05:07:46.361Z,100443.25
2023-02-22T05:08:48.849Z,100437.25
2023-02-22T05:09:51.646Z,100438.00
2023-02-22T05:10:54.824Z,100445.63
2023-02-22T05:11:56.317Z,100434.41
2023-02-22T05:12:59.014Z,100438.75
2023-02-22T05:14:00.583Z,100430.28
2023-02-22T05:15:03.073Z,100436.47
2023-02-22T05:16:05.415Z,100437.44
2023-02-22T05:17:07.956Z,100430.09
2023-02-22T05:18:09.455Z,100435.13
2023-02-22T05:19:11.949Z,100432.88
2023-02-22T05:20:21.900Z,100434.66
2023-02-22T05:21:24.593Z,100436.91
2023-02-22T05:22:26.125Z,100430.50
2023-02-22T05:23:28.575Z,100434.19
2023-02-22T05:24:30.100Z,100426.97
2023-02-22T05:25:34.426Z,100439.69
2023-02-22T05:26:35.919Z,100436.38
2023-02-22T05:27:38.359Z,100430.34
2023-02-22T05:28:40.879Z,100432.09
2023-02-22T05:29:42.367Z,100440.81
2023-02-22T05:30:44.992Z,100423.09
2023-02-22T05:31:46.800Z,100431.88
2023-02-22T05:32:49.503Z,100429.69
2023-02-22T05:33:50.987Z,100431.78
2023-02-22T05:34:53.372Z,100430.94
2023-02-22T05:35:56.012Z,100427.88
2023-02-22T05:36:58.462Z,100428.66
2023-02-22T05:38:03.118Z,100430.84
2023-02-22T05:39:06.393Z,100430.81
2023-02-22T05:40:08.727Z,100424.06
2023-02-22T05:41:14.141Z,100429.13
2023-02-22T05:42:15.609Z,100427.41
2023-02-22T05:43:18.343Z,100430.63
2023-02-22T05:44:20.112Z,100428.59
2023-02-22T05:45:24.741Z,100427.84
2023-02-22T05:46:26.516Z,100420.72
2023-02-22T05:47:28.944Z,100425.56
2023-02-22T05:48:31.157Z,100432.63
2023-02-22T05:49:33.564Z,100429.84
2023-02-22T05:50:35.191Z,100424.88
2023-02-22T05:51:37.695Z,100433.81
2023-02-22T05:52:39.340Z,100430.28
2023-02-22T05:53:42.504Z,100430.28
2023-02-22T05:54:44.053Z,100433.19
2023-02-22T05:55:46.698Z,100436.41
2023-02-22T05:56:49.616Z,100435.84
2023-02-22T05:57:53.139Z,100424.69
2023-02-22T05:58:55.155Z,100430.91
2023-02-22T05:59:57.935Z,100425.72
2023-02-22T06:01:01.140Z,100423.59
2023-02-22T06:02:04.744Z,100431.34
2023-02-22T06:03:09.612Z,100421.94
2023-02-22T06:04:11.098Z,100427.22
2023-02-22T06:05:14.009Z,100426.03
2023-02-22T06:06:16.121Z,100424.59
2023-02-22T06:07:19.208Z,100433.03
2023-02-22T06:08:20.670Z,100426.19
2023-02-22T06:09:23.152Z,100423.41
2023-02-22T06:10:25.944Z,100432.63
2023-02-22T06:11:28.400Z,100425.81
2023-02-22T06:12:31.309Z,100426.31
2023-02-22T06:13:34.003Z,100429.00
2023-02-22T06:14:36.157Z,100423.47
2023-02-22T06:15:38.614Z,100426.19
2023-02-22T06:16:40.158Z,100427.88
2023-02-22T06:17:42.901Z,100432.25
2023-02-22T06:18:44.416Z,100432.88
2023-02-22T06:19:47.172Z,100433.69
2023-02-22T06:20:48.700Z,100429.38
2023-02-22T06:21:51.653Z,100429.50
2023-02-22T06:22:56.095Z,100426.25
2023-02-22T06:23:58.537Z,100429.84
2023-02-22T06:25:02.186Z,100432.88
2023-02-22T06:26:04.892Z,100427.97
2023-02-22T06:27:06.421Z,100429.84
2023-02-22T06:28:10.808Z,100431.47
2023-02-22T06:29:12.502Z,100430.09
2023-02-22T06:30:17.121Z,100436.91
2023-02-22T06:31:18.944Z,100425.41
2023-02-22T06:32:21.645Z,100432.25
2023-02-22T06:33:23.169Z,100433.09
2023-02-22T06:34:25.608Z,100436.38
2023-02-22T06:35:27.214Z,100433.09
2023-02-22T06:36:29.814Z,100432.47
2023-02-22T06:37:33.427Z,100439.84
2023-02-22T06:38:35.835Z,100437.84
2023-02-22T06:39:37.414Z,100439.72
2023-02-22T06:40:39.830Z,100442.13
2023-02-22T06:41:42.443Z,100436.03
2023-02-22T06:42:45.484Z,100440.63
2023-02-22T06:43:49.514Z,100451.19
2023-02-22T06:44:51.854Z,100443.50
2023-02-22T06:45:54.547Z,100446.81
2023-02-22T06:46:56.340Z,100447.69
2023-02-22T06:47:58.796Z,100454.25
2023-02-22T06:49:00.300Z,100453.34
2023-02-22T06:51:04.701Z,100446.97
2023-02-22T06:52:08.624Z,100445.81
2023-02-22T06:53:10.118Z,100450.41
2023-02-22T06:54:12.596Z,100449.00
2023-02-22T06:55:17.775Z,100444.56
2023-02-22T06:56:20.351Z,100441.25
2023-02-22T06:57:21.823Z,100444.72
2023-02-22T06:58:24.286Z,100449.13
2023-02-22T06:59:28.922Z,100445.25
2023-02-22T07:00:32.155Z,100444.94
2023-02-22T07:01:34.596Z,100443.91
2023-02-22T07:02:36.440Z,100444.44
2023-02-22T07:03:39.192Z,100448.06
2023-02-22T07:04:43.383Z,100444.78
2023-02-22T07:05:46.571Z,100446.72
2023-02-22T07:06:49.376Z,100452.19
2023-02-22T07:07:54.352Z,100448.28
2023-02-22T07:08:56.043Z,100451.16
2023-02-22T07:09:58.530Z,100459.53
2023-02-22T07:11:01.025Z,100455.06
2023-02-22T07:12:02.514Z,100456.88
2023-02-22T07:13:06.380Z,100453.81
2023-02-22T07:14:07.931Z,100455.44
2023-02-22T07:15:11.781Z,100452.38
2023-02-22T07:16:14.223Z,100453.88
2023-02-22T07:17:15.872Z,100456.81
2023-02-22T07:18:18.390Z,100454.75
2023-02-22T07:19:19.916Z,100460.28
2023-02-22T07:20:24.876Z,100460.66
2023-02-22T07:21:26.408Z,100449.25
2023-02-22T07:22:28.829Z,100453.97
2023-02-22T07:23:31.475Z,100449.78
2023-02-22T07:24:35.096Z,100457.38
2023-02-22T07:25:36.652Z,100459.84
2023-02-22T07:26:41.304Z,100459.72
2023-02-22T07:27:43.108Z,100460.94
2023-02-22T07:28:45.592Z,100449.88
2023-02-22T07:29:48.051Z,100463.06
2023-02-22T07:30:52.166Z,100452.94
2023-02-22T07:31:53.687Z,100460.47
2023-02-22T07:32:56.281Z,100458.19
2023-02-22T07:33:57.792Z,100451.81
2023-02-22T07:35:02.781Z,100458.28
2023-02-22T07:36:06.048Z,100448.06
2023-02-22T07:37:08.489Z,100460.19
2023-02-22T07:38:10.201Z,100459.03
2023-02-22T07:39:12.644Z,100451.72
2023-02-22T07:40:15.731Z,100455.72
2023-02-22T07:41:18.494Z,100455.97
2023-02-22T07:42:20.206Z,100453.38
2023-02-22T07:43:24.544Z,100451.94
2023-02-22T07:44:26.125Z,100454.13
2023-02-22T07:45:30.209Z,100452.22
2023-02-22T07:46:33.837Z,100455.63
2023-02-22T07:47:36.249Z,100449.59
2023-02-22T07:48:37.892Z,100452.00
2023-02-22T07:49:40.420Z,100448.06
2023-02-22T07:51:04.075Z,100449.38
2023-02-22T07:52:07.813Z,100452.56
2023-02-22T07:53:14.251Z,100453.81
2023-02-22T07:54:15.772Z,100452.56
2023-02-22T07:55:20.889Z,100452.75
2023-02-22T07:56:23.464Z,100450.19
2023-02-22T07:57:25.007Z,100448.66
2023-02-22T07:58:30.883Z,100445.22
2023-02-22T07:59:33.890Z,100442.19
2023-02-22T08:00:37.890Z,100452.13
2023-02-22T08:01:41.068Z,100445.44
2023-02-22T08:02:44.225Z,100442.25
2023-02-22T08:03:47.849Z,100451.47
2023-02-22T08:04:49.315Z,100436.19
2023-02-22T08:05:54.892Z,100442.38
2023-02-22T08:06:57.317Z,100440.88
2023-02-22T08:07:58.829Z,100446.03
2023-02-22T08:09:01.247Z,100440.81
2023-02-22T08:10:06.718Z,100438.75
2023-02-22T08:11:11.176Z,100443.03
2023-02-22T08:12:12.707Z,100443.06
2023-02-22T08:13:15.933Z,100446.56
2023-02-22T08:14:18.605Z,100448.91
2023-02-22T08:15:22.532Z,100442.94
2023-02-22T08:16:25.105Z,100448.66
2023-02-22T08:17:28.233Z,100441.09
2023-02-22T08:18:30.679Z,100450.56
2023-02-22T08:19:32.265Z,100443.47
2023-02-22T08:20:34.649Z,100445.34
2023-02-22T08:21:37.075Z,100440.63
2023-02-22T08:22:38.643Z,100445.28
2023-02-22T08:23:41.100Z,100446.25
2023-02-22T08:24:42.587Z,100442.25
2023-02-22T08:25:45.126Z,100450.25
2023-02-22T08:26:48.241Z,100439.69
2023-02-22T08:27:49.761Z,100452.00
2023-02-22T08:28:53.090Z,100446.97
2023-02-22T08:29:55.842Z,100445.56
2023-02-22T08:30:58.259Z,100450.75
2023-02-22T08:32:03.162Z,100445.00
2023-02-22T08:33:07.360Z,100441.97
2023-02-22T08:34:08.904Z,100447.84
2023-02-22T08:35:13.626Z,100441.50
2023-02-22T08:36:16.043Z,100441.28
2023-02-22T08:37:18.792Z,100442.25
2023-02-22T08:38:23.764Z,100440.91
2023-02-22T08:39:25.343Z,100440.75
2023-02-22T08:40:31.150Z,100441.47
2023-02-22T08:41:33.689Z,100447.09
2023-02-22T08:42:35.157Z,100445.78
2023-02-22T08:43:40.698Z,100445.13
2023-02-22T08:44:45.091Z,100457.59
2023-02-22T08:45:48.148Z,100449.22
2023-02-22T08:46:49.686Z,100449.03
2023-02-22T08:47:53.891Z,100451.50
2023-02-22T08:49:00.858Z,100455.22
2023-02-22T08:50:02.661Z,100454.94
2023-02-22T08:51:05.392Z,100450.38
2023-02-22T08:52:06.941Z,100451.72
2023-02-22T08:53:10.571Z,100454.94
2023-02-22T08:54:12.575Z,100454.47
2023-02-22T08:55:15.106Z,100446.94
2023-02-22T08:56:16.699Z,100430.13
2023-02-22T08:57:21.585Z,100445.00
2023-02-22T08:58:24.125Z,100448.81
2023-02-22T08:59:25.751Z,100450.63
2023-02-22T09:00:29.565Z,100444.16
2023-02-22T09:01:33.604Z,100441.06
2023-02-22T09:02:36.263Z,100447.31
2023-02-22T09:03:38.765Z,100443.22
2023-02-22T09:04:41.699Z,100448.88
2023-02-22T09:05:45.314Z,100441.41
2023-02-22T09:06:51.690Z,100445.97
2023-02-22T09:07:54.398Z,100448.13
2023-02-22T09:08:56.887Z,100446.03
2023-02-22T09:09:58.435Z,100440.91
2023-02-22T09:11:00.934Z,100438.78
2023-02-22T09:12:02.773Z,100440.75
2023-02-22T09:13:05.494Z,100450.81
2023-02-22T09:14:06.996Z,100445.75
2023-02-22T09:15:10.494Z,100446.88
2023-02-22T09:16:13.139Z,100445.66
2023-02-22T09:17:14.994Z,100448.41
2023-02-22T09:18:18.037Z,100443.66
2023-02-22T09:19:19.675Z,100446.13
2023-02-22T09:20:25.449Z,100440.88
2023-02-22T09:21:26.937Z,100446.66
2023-02-22T09:22:29.350Z,100449.28
2023-02-22T09:23:32.542Z,100439.41
2023-02-22T09:24:34.536Z,100442.00
2023-02-22T09:25:38.759Z,100445.28
2023-02-22T09:26:40.372Z,100448.34
2023-02-22T09:27:44.022Z,100440.72
2023-02-22T09:28:48.535Z,100438.56
2023-02-22T09:29:50.158Z,100441.59
2023-02-22T09:30:53.432Z,100437.94
2023-02-22T09:31:56.247Z,100424.03
2023-02-22T09:33:01.434Z,100439.53
2023-02-22T09:34:04.402Z,100431.59
2023-02-22T09:35:08.725Z,100423.63
2023-02-22T09:36:11.586Z,100424.00
2023-02-22T09:37:14.462Z,100426.94
2023-02-22T09:38:19.685Z,100432.75
2023-02-22T09:39:21.688Z,100422.88
2023-02-22T09:40:29.989Z,100421.28
2023-02-22T09:41:36.951Z,100427.81
2023-02-22T09:42:45.586Z,100418.56
2023-02-22T09:43:52.300Z,100425.19
2023-02-22T09:45:03.880Z,100426.56
2023-02-22T09:46:19.120Z,100423.13
2023-02-22T09:47:32.314Z,100419.06
2023-02-22T09:48:36.386Z,100420.19
2023-02-22T09:49:47.472Z,100424.19
2023-02-22T09:50:52.491Z,100420.41
2023-02-22T09:52:01.680Z,100419.25
2023-02-22T09:53:07.263Z,100416.81
2023-02-22T09:54:18.691Z,100424.06
2023-02-22T09:55:34.243Z,100412.53
2023-02-22T09:56:36.905Z,100413.38
2023-02-22T09:57:42.893Z,100412.75
2023-02-22T09:58:46.482Z,100408.69
2023-02-22T10:00:01.434Z,100407.75
2023-02-22T10:01:19.982Z,100407.72
2023-02-22T10:02:29.811Z,100401.09
2023-02-22T10:03:37.725Z,100407.16
2023-02-22T10:04:44.821Z,100408.16
2023-02-22T10:05:54.493Z,100400.81
2023-02-22T10:07:12.643Z,100411.63
2023-02-22T10:08:16.234Z,100404.47
2023-02-22T10:09:19.044Z,100406.66
2023-02-22T10:10:24.007Z,100399.16
2023-02-22T10:11:45.130Z,100387.22
2023-02-22T10:13:02.101Z,100393.44
2023-02-22T10:14:22.691Z,100389.06
2023-02-22T10:15:42.548Z,100387.66
2023-02-22T10:16:53.284Z,100389.56
2023-02-22T10:18:00.545Z,100394.34
2023-02-22T10:19:11.043Z,100390.94
2023-02-22T10:20:22.760Z,100394.88
2023-02-22T10:21:37.874Z,100395.84
2023-02-22T10:22:52.720Z,100393.81
2023-02-22T10:24:02.142Z,100397.34
2023-02-22T10:25:09.754Z,100394.25
2023-02-22T10:26:17.678Z,100393.88
2023-02-22T10:27:22.321Z,100394.88
2023-02-22T10:28:30.943Z,100390.81
2023-02-22T10:29:39.843Z,100382.72
2023-02-22T10:30:49.214Z,100381.22
2023-02-22T10:31:57.727Z,100395.75
2023-02-22T10:33:08.066Z,100389.50
2023-02-22T10:34:16.418Z,100388.63
2023-02-22T10:35:23.738Z,100383.16
2023-02-22T10:36:27.391Z,100383.88
2023-02-22T10:37:32.254Z,100383.97
2023-02-22T10:38:36.517Z,100379.91
2023-02-22T10:39:39.829Z,100387.75
2023-02-22T10:40:47.745Z,100372.97
2023-02-22T10:41:52.666Z,100377.50
2023-02-22T10:42:55.546Z,100379.97
2023-02-22T10:43:58.072Z,100379.47
2023-02-22T10:45:00.919Z,100382.03
2023-02-22T10:46:08.120Z,100375.41
2023-02-22T10:47:11.715Z,100375.94
2023-02-22T10:48:18.635Z,100370.13
2023-02-22T10:49:24.697Z,100372.03
2023-02-22T10:50:28.026Z,100370.41
2023-02-22T10:51:33.325Z,100369.75
2023-02-22T10:52:34.966Z,100369.63
2023-02-22T10:53:39.438Z,100369.19
2023-02-22T10:54:45.307Z,100360.31
2023-02-22T10:56:07.256Z,100361.63
2023-02-22T10:57:13.475Z,100355.22
2023-02-22T10:58:16.048Z,100365.28
2023-02-22T10:59:29.269Z,100364.66
2023-02-22T11:00:33.094Z,100359.13
2023-02-22T11:01:41.563Z,100359.00
2023-02-22T11:02:52.561Z,100354.81
2023-02-22T11:04:00.702Z,100364.03
2023-02-22T11:05:06.254Z,100351.44
2023-02-22T11:06:19.002Z,100347.56
2023-02-22T11:07:25.189Z,100353.06
2023-02-22T11:08:29.193Z,100337.44
2023-02-22T11:09:47.375Z,100354.22
2023-02-22T11:10:49.677Z,100347.69
2023-02-22T11:12:09.249Z,100349.44
2023-02-22T11:13:17.607Z,100345.59
2023-02-22T11:14:27.442Z,100337.16
2023-02-22T11:15:29.758Z,100354.25
2023-02-22T11:16:36.171Z,100350.78
2023-02-22T11:17:41.039Z,100339.28
2023-02-22T11:18:43.613Z,100342.34
2023-02-22T11:19:50.995Z,100330.97
2023-02-22T11:21:00.689Z,100336.13
2023-02-22T11:22:14.702Z,100341.88
2023-02-22T11:23:23.700Z,100335.88
2023-02-22T11:24:37.378Z,100330.06
2023-02-22T11:25:48.193Z,100328.16
2023-02-22T11:26:54.228Z,100324.91
2023-02-22T11:28:09.106Z,100322.28
2023-02-22T11:29:20.651Z,100319.09
2023-02-22T11:30:30.093Z,100315.16
2023-02-22T11:31:32.004Z,100318.28
2023-02-22T11:32:36.447Z,100324.31
2023-02-22T11:33:38.889Z,100318.63
2023-02-22T11:34:43.603Z,100328.69
2023-02-22T11:35:52.972Z,100319.53
2023-02-22T11:36:55.436Z,100314.03
2023-02-22T11:38:10.577Z,100312.22
2023-02-22T11:39:24.975Z,100311.88
2023-02-22T11:40:27.460Z,100310.63
2023-02-22T11:41:34.065Z,100305.19
2023-02-22T11:42:35.673Z,100310.06
2023-02-22T11:43:38.621Z,100305.44
2023-02-22T11:44:44.710Z,100299.47
2023-02-22T11:46:02.479Z,100307.34
2023-02-22T11:47:06.961Z,100304.53
2023-02-22T11:48:21.014Z,100293.63
2023-02-22T11:49:25.055Z,100300.16
2023-02-22T11:50:31.630Z,100299.84
2023-02-22T11:51:49.464Z,100293.16
2023-02-22T11:53:02.399Z,100298.38
2023-02-22T11:54:25.554Z,100287.78
2023-02-22T11:55:42.862Z,100291.19
2023-02-22T11:56:50.333Z,100289.75
2023-02-22T11:58:05.795Z,100294.44
2023-02-22T11:59:22.267Z,100286.50
2023-02-22T12:00:34.687Z,100283.78
2023-02-22T12:01:43.949Z,100287.91
2023-02-22T12:03:03.788Z,100276.00
2023-02-22T12:04:38.535Z,100290.03
2023-02-22T12:06:00.966Z,100295.34
2023-02-22T12:07:18.787Z,100287.72
2023-02-22T12:08:30.841Z,100290.59
2023-02-22T12:09:40.741Z,100290.97
2023-02-22T12:10:56.785Z,100287.22
2023-02-22T12:12:12.025Z,100285.56
2023-02-22T12:13:33.040Z,100280.09
2023-02-22T12:14:48.161Z,100275.94
2023-02-22T12:15:56.264Z,100283.09
2023-02-22T12:17:13.738Z,100274.41
2023-02-22T12:18:22.181Z,100282.34
2023-02-22T12:19:30.957Z,100286.22
2023-02-22T12:20:40.636Z,100283.13
2023-02-22T12:21:50.308Z,100274.25
2023-02-22T12:23:05.092Z,100280.47
2023-02-22T12:24:14.281Z,100271.59
2023-02-22T12:25:20.710Z,100278.09
2023-02-22T12:26:30.406Z,100275.63
2023-02-22T12:27:38.556Z,100278.81